Time;durP1;ratioP1;P1;durP2;ratioP2;P2;SDS_P1;SDS_P2;PMS_P1;PMS_P2;Temp;Humidity;BMP_temperature;BMP_pressure;BME280_temperature;BME280_humidity;BME280_pressure;Samples;Min_cycle;Max_cycle;Signal;HPM_P1;HPM_P2
2023/12/17 00:02:05;;;;;;;6.60;1.70;;;;;;;;;;5070319;28;20054;-39
2023/12/17 00:04:32;;;;;;;4.60;1.52;;;;;;;;;;5070454;28;20434;-39
2023/12/17 00:06:59;;;;;;;4.03;1.60;;;;;;;;;;5070812;28;20478;-42
2023/12/17 00:09:26;;;;;;;5.28;1.50;;;;;;;;;;5068082;28;20386;-39
2023/12/17 00:11:53;;;;;;;6.85;1.50;;;;;;;;;;5070123;28;20036;-40
2023/12/17 00:14:20;;;;;;;4.18;1.52;;;;;;;;;;5070471;28;20024;-43
2023/12/17 00:16:47;;;;;;;4.18;1.90;;;;;;;;;;5068518;28;20386;-39
2023/12/17 00:19:14;;;;;;;3.40;1.85;;;;;;;;;;5068597;28;20032;-39
2023/12/17 00:21:41;;;;;;;7.32;1.70;;;;;;;;;;5055971;28;20044;-38
2023/12/17 00:24:08;;;;;;;6.38;2.28;;;;;;;;;;5057408;28;20035;-39
2023/12/17 00:26:35;;;;;;;3.10;1.67;;;;;;;;;;5055768;28;20072;-38
2023/12/17 00:29:02;;;;;;;2.80;1.60;;;;;;;;;;5064993;28;20031;-39
2023/12/17 00:31:29;;;;;;;10.05;1.83;;;;;;;;;;5069696;28;20119;-38
2023/12/17 00:33:56;;;;;;;6.57;2.20;;;;;;;;;;5070592;28;20030;-38
2023/12/17 00:36:23;;;;;;;6.47;1.77;;;;;;;;;;5073661;28;20049;-38
2023/12/17 00:38:50;;;;;;;3.90;1.92;;;;;;;;;;5073097;28;20039;-38
2023/12/17 00:41:17;;;;;;;7.28;2.35;;;;;;;;;;5072420;28;20029;-38
2023/12/17 00:43:44;;;;;;;9.25;2.50;;;;;;;;;;5074169;28;20028;-38
2023/12/17 00:46:11;;;;;;;3.97;2.08;;;;;;;;;;5073615;28;20158;-39
2023/12/17 00:48:38;;;;;;;5.00;2.47;;;;;;;;;;5071622;28;20078;-38
2023/12/17 00:51:05;;;;;;;5.22;2.47;;;;;;;;;;5072651;28;20114;-38
2023/12/17 00:53:32;;;;;;;7.88;3.10;;;;;;;;;;5073779;28;20383;-39
2023/12/17 00:55:59;;;;;;;5.75;2.78;;;;;;;;;;5074000;28;20352;-38
2023/12/17 00:58:26;;;;;;;5.28;2.63;;;;;;;;;;5069951;28;20021;-38
2023/12/17 01:00:53;;;;;;;3.40;2.03;;;;;;;;;;5055310;28;20491;-37
2023/12/17 01:03:20;;;;;;;4.03;1.58;;;;;;;;;;5068161;28;20058;-39
2023/12/17 01:05:47;;;;;;;3.35;1.50;;;;;;;;;;5056001;28;20147;-37
2023/12/17 01:08:14;;;;;;;8.32;1.67;;;;;;;;;;5069121;28;20845;-38
2023/12/17 01:10:41;;;;;;;14.05;1.92;;;;;;;;;;5042106;28;20102;-39
2023/12/17 01:13:08;;;;;;;4.82;1.80;;;;;;;;;;5073535;28;20517;-39
2023/12/17 01:15:35;;;;;;;3.30;1.80;;;;;;;;;;5073290;28;20037;-39
2023/12/17 01:18:02;;;;;;;3.45;1.92;;;;;;;;;;5073745;28;20028;-38
2023/12/17 01:20:29;;;;;;;3.30;1.50;;;;;;;;;;5072914;28;20081;-38
2023/12/17 01:22:56;;;;;;;3.97;1.27;;;;;;;;;;5069560;28;20033;-38
2023/12/17 01:25:23;;;;;;;4.32;1.52;;;;;;;;;;5073344;28;20402;-38
2023/12/17 01:27:50;;;;;;;3.92;1.25;;;;;;;;;;5073656;28;20029;-38
2023/12/17 01:30:17;;;;;;;3.78;1.48;;;;;;;;;;5072945;28;20162;-38
2023/12/17 01:32:44;;;;;;;3.72;1.35;;;;;;;;;;5073453;28;20036;-37
2023/12/17 01:35:11;;;;;;;4.28;1.40;;;;;;;;;;5070451;28;20031;-38
2023/12/17 01:37:38;;;;;;;2.83;1.17;;;;;;;;;;5066612;28;20033;-38
2023/12/17 01:40:05;;;;;;;3.75;1.42;;;;;;;;;;5072874;28;20501;-38
2023/12/17 01:42:32;;;;;;;3.25;1.23;;;;;;;;;;5073095;28;20035;-38
2023/12/17 01:44:59;;;;;;;4.57;1.33;;;;;;;;;;5073095;28;20406;-38
2023/12/17 01:47:26;;;;;;;3.30;1.70;;;;;;;;;;5058309;28;20025;-39
2023/12/17 01:49:53;;;;;;;5.38;1.77;;;;;;;;;;5054294;28;20028;-39
2023/12/17 01:52:20;;;;;;;3.67;1.33;;;;;;;;;;5071792;28;20029;-38
2023/12/17 01:54:49;;;;;;;3.08;1.73;;;;;;;;;;5062372;28;20082;-38
2023/12/17 01:57:16;;;;;;;3.75;2.05;;;;;;;;;;5055987;28;20449;-38
2023/12/17 01:59:43;;;;;;;3.58;2.15;;;;;;;;;;5071503;28;20430;-38
2023/12/17 02:02:13;;;;;;;4.20;1.90;;;;;;;;;;5072311;28;20032;-39
2023/12/17 02:04:40;;;;;;;4.05;2.00;;;;;;;;;;5072621;28;20036;-39
2023/12/17 02:07:07;;;;;;;4.13;2.10;;;;;;;;;;5056582;28;20512;-40
2023/12/17 02:09:34;;;;;;;3.85;1.90;;;;;;;;;;5067557;28;20036;-39
2023/12/17 02:12:02;;;;;;;5.18;1.90;;;;;;;;;;5072385;28;20029;-40
2023/12/17 02:14:28;;;;;;;2.95;1.83;;;;;;;;;;5025625;28;20032;-39
2023/12/17 02:16:55;;;;;;;4.88;1.90;;;;;;;;;;5071872;28;20036;-40
2023/12/17 02:19:22;;;;;;;4.15;2.10;;;;;;;;;;5072630;28;20029;-38
2023/12/17 02:21:49;;;;;;;6.40;1.98;;;;;;;;;;5071643;28;20074;-39
2023/12/17 02:24:16;;;;;;;3.53;1.50;;;;;;;;;;5070491;28;20890;-38
2023/12/17 02:26:44;;;;;;;5.25;1.90;;;;;;;;;;5064022;28;20037;-38
2023/12/17 02:29:11;;;;;;;7.38;1.50;;;;;;;;;;5071708;28;20060;-39
2023/12/17 02:31:37;;;;;;;6.30;1.60;;;;;;;;;;5072217;28;20081;-39
2023/12/17 02:34:04;;;;;;;5.72;1.50;;;;;;;;;;5072067;28;20028;-38
2023/12/17 02:36:32;;;;;;;4.55;1.27;;;;;;;;;;5054586;28;20398;-38
2023/12/17 02:38:59;;;;;;;3.45;1.20;;;;;;;;;;5072032;28;20505;-38
2023/12/17 02:41:26;;;;;;;3.47;1.40;;;;;;;;;;5072081;28;20032;-38
2023/12/17 02:43:53;;;;;;;4.15;1.20;;;;;;;;;;5072008;28;20068;-38
2023/12/17 02:46:20;;;;;;;2.97;1.17;;;;;;;;;;5071745;28;20033;-38
2023/12/17 02:48:46;;;;;;;2.72;1.23;;;;;;;;;;5071994;28;20035;-38
2023/12/17 02:51:14;;;;;;;2.58;1.20;;;;;;;;;;5068474;28;20020;-38
2023/12/17 02:53:41;;;;;;;6.15;1.83;;;;;;;;;;5061672;28;20048;-38
2023/12/17 02:56:08;;;;;;;5.32;1.40;;;;;;;;;;5063154;28;20052;-38
2023/12/17 02:58:35;;;;;;;7.85;1.50;;;;;;;;;;5068425;28;20028;-38
2023/12/17 03:01:02;;;;;;;7.43;1.65;;;;;;;;;;5068916;28;20467;-40
2023/12/17 03:03:29;;;;;;;6.90;1.40;;;;;;;;;;5068014;28;20052;-39
2023/12/17 03:05:56;;;;;;;6.85;1.40;;;;;;;;;;5066843;28;20048;-39
2023/12/17 03:08:23;;;;;;;5.18;1.80;;;;;;;;;;5068590;28;20080;-39
2023/12/17 03:10:50;;;;;;;9.15;1.90;;;;;;;;;;5069381;28;20028;-38
2023/12/17 03:13:17;;;;;;;8.82;1.60;;;;;;;;;;5071250;28;20068;-38
2023/12/17 03:15:44;;;;;;;5.43;1.48;;;;;;;;;;5062876;28;20028;-37
2023/12/17 03:18:11;;;;;;;8.70;1.60;;;;;;;;;;5070083;28;20056;-38
2023/12/17 03:20:38;;;;;;;6.13;1.70;;;;;;;;;;5070125;28;20070;-38
2023/12/17 03:23:08;;;;;;;6.53;1.70;;;;;;;;;;5070657;28;20111;-43
2023/12/17 03:25:35;;;;;;;6.40;1.40;;;;;;;;;;5068433;28;20125;-38
2023/12/17 03:28:02;;;;;;;6.82;1.58;;;;;;;;;;5070038;28;20026;-38
2023/12/17 03:30:29;;;;;;;7.85;1.88;;;;;;;;;;5070534;28;20123;-38
2023/12/17 03:32:56;;;;;;;7.25;1.70;;;;;;;;;;5066604;28;20029;-38
2023/12/17 03:35:23;;;;;;;7.93;1.83;;;;;;;;;;5068529;28;20035;-38
2023/12/17 03:37:50;;;;;;;9.48;1.95;;;;;;;;;;5070196;28;20020;-38
2023/12/17 03:40:17;;;;;;;7.78;1.80;;;;;;;;;;5069355;28;20115;-38
2023/12/17 03:42:44;;;;;;;9.50;1.73;;;;;;;;;;5070869;28;20028;-38
2023/12/17 03:45:11;;;;;;;7.32;1.77;;;;;;;;;;5047050;28;20048;-37
2023/12/17 03:47:42;;;;;;;11.52;1.83;;;;;;;;;;5068355;28;20036;-38
2023/12/17 03:50:09;;;;;;;9.35;1.75;;;;;;;;;;5070310;28;20841;-38
2023/12/17 03:52:36;;;;;;;14.10;2.15;;;;;;;;;;5070120;28;20033;-38
2023/12/17 03:55:03;;;;;;;22.88;2.47;;;;;;;;;;5069816;28;20108;-38
2023/12/17 03:57:30;;;;;;;22.13;2.60;;;;;;;;;;5069931;28;20020;-37
2023/12/17 03:59:57;;;;;;;13.90;2.20;;;;;;;;;;5069660;28;20041;-39
2023/12/17 04:02:25;;;;;;;11.77;1.77;;;;;;;;;;5069826;28;20064;-38
2023/12/17 04:04:52;;;;;;;12.30;2.15;;;;;;;;;;5069601;28;20068;-40
2023/12/17 04:07:19;;;;;;;11.60;1.95;;;;;;;;;;5068749;28;20033;-39
2023/12/17 04:09:47;;;;;;;11.15;1.73;;;;;;;;;;5070833;28;20058;-38
2023/12/17 04:12:14;;;;;;;12.38;1.55;;;;;;;;;;5074225;28;20031;-38
2023/12/17 04:14:42;;;;;;;13.23;1.98;;;;;;;;;;5074649;28;20109;-38
2023/12/17 04:17:09;;;;;;;6.47;1.27;;;;;;;;;;5072834;28;20060;-38
2023/12/17 04:19:36;;;;;;;8.98;1.70;;;;;;;;;;5074284;28;20021;-38
2023/12/17 04:22:03;;;;;;;11.75;1.70;;;;;;;;;;5073667;28;20025;-39
2023/12/17 04:24:31;;;;;;;12.75;1.77;;;;;;;;;;5073796;28;20035;-38
2023/12/17 04:26:58;;;;;;;4.47;1.45;;;;;;;;;;5074376;28;20470;-38
2023/12/17 04:29:26;;;;;;;11.60;1.80;;;;;;;;;;5073765;28;20033;-39
2023/12/17 04:31:53;;;;;;;11.05;1.80;;;;;;;;;;5073051;28;20032;-38
2023/12/17 04:34:20;;;;;;;6.85;1.60;;;;;;;;;;5071638;28;20025;-38
2023/12/17 04:36:47;;;;;;;7.68;1.50;;;;;;;;;;5074236;28;20494;-38
2023/12/17 04:39:14;;;;;;;7.63;1.63;;;;;;;;;;5072646;28;20025;-37
2023/12/17 04:41:42;;;;;;;7.28;1.60;;;;;;;;;;5072107;28;20082;-39
2023/12/17 04:44:09;;;;;;;15.50;1.65;;;;;;;;;;5067951;28;20056;-38
2023/12/17 04:46:36;;;;;;;6.05;1.45;;;;;;;;;;5064536;28;20082;-38
2023/12/17 04:49:04;;;;;;;11.45;1.88;;;;;;;;;;5069854;28;20360;-38
2023/12/17 04:51:30;;;;;;;8.95;1.73;;;;;;;;;;5071544;28;20486;-41
2023/12/17 04:53:58;;;;;;;9.00;1.52;;;;;;;;;;5072632;28;20428;-39
2023/12/17 04:56:25;;;;;;;14.75;1.98;;;;;;;;;;5072980;28;20028;-38
2023/12/17 04:58:52;;;;;;;8.05;1.80;;;;;;;;;;5073445;28;20073;-38
2023/12/17 05:01:19;;;;;;;8.88;1.70;;;;;;;;;;5063630;28;20028;-38
2023/12/17 05:03:46;;;;;;;6.78;1.67;;;;;;;;;;5071553;28;20040;-38
2023/12/17 05:06:13;;;;;;;7.85;1.40;;;;;;;;;;5073053;28;20036;-37
2023/12/17 05:08:41;;;;;;;8.65;1.65;;;;;;;;;;5072834;28;20020;-38
2023/12/17 05:11:08;;;;;;;6.28;1.27;;;;;;;;;;5072845;28;20024;-38
2023/12/17 05:13:35;;;;;;;8.23;1.50;;;;;;;;;;5073102;28;20028;-38
2023/12/17 05:16:03;;;;;;;8.52;1.63;;;;;;;;;;5072390;28;20043;-38
2023/12/17 05:18:30;;;;;;;5.60;1.58;;;;;;;;;;5070069;28;20024;-38
2023/12/17 05:20:57;;;;;;;4.15;1.55;;;;;;;;;;5065468;28;20052;-38
2023/12/17 05:23:24;;;;;;;5.60;1.30;;;;;;;;;;5070390;28;20024;-39
2023/12/17 05:25:51;;;;;;;4.20;1.48;;;;;;;;;;5072162;28;20047;-38
2023/12/17 05:28:19;;;;;;;10.25;1.70;;;;;;;;;;5073360;28;20037;-39
2023/12/17 05:30:47;;;;;;;9.38;1.67;;;;;;;;;;5073116;28;20028;-38
2023/12/17 05:33:14;;;;;;;9.82;1.50;;;;;;;;;;5071540;28;20060;-39
2023/12/17 05:35:42;;;;;;;11.07;1.75;;;;;;;;;;5072327;28;20029;-37
2023/12/17 05:38:09;;;;;;;9.18;1.75;;;;;;;;;;5071836;28;20044;-39
2023/12/17 05:40:36;;;;;;;13.50;1.90;;;;;;;;;;5072090;28;20036;-38
2023/12/17 05:43:08;;;;;;;27.33;2.20;;;;;;;;;;5068732;28;20051;-39
2023/12/17 05:45:35;;;;;;;28.48;2.10;;;;;;;;;;5056967;28;20102;-38
2023/12/17 05:48:02;;;;;;;22.80;1.85;;;;;;;;;;5065333;28;20037;-38
2023/12/17 05:50:29;;;;;;;28.90;2.80;;;;;;;;;;5052459;28;20091;-37
2023/12/17 05:52:56;;;;;;;43.97;3.42;;;;;;;;;;5071590;28;20046;-41
2023/12/17 05:55:23;;;;;;;30.38;3.00;;;;;;;;;;5068792;28;20558;-38
2023/12/17 05:57:50;;;;;;;20.02;2.58;;;;;;;;;;5070875;28;20386;-38
2023/12/17 06:00:18;;;;;;;31.02;2.90;;;;;;;;;;5062885;28;20040;-38
2023/12/17 06:02:45;;;;;;;26.27;3.08;;;;;;;;;;5069394;28;20114;-37
2023/12/17 06:05:12;;;;;;;26.38;2.90;;;;;;;;;;5071553;28;20037;-38
2023/12/17 06:07:39;;;;;;;20.17;2.38;;;;;;;;;;5069946;28;20036;-37
2023/12/17 06:10:06;;;;;;;23.05;3.17;;;;;;;;;;5071273;28;20029;-38
2023/12/17 06:12:33;;;;;;;18.20;2.83;;;;;;;;;;5068516;28;20036;-38
2023/12/17 06:15:00;;;;;;;24.95;2.63;;;;;;;;;;5067687;28;20026;-38
2023/12/17 06:17:27;;;;;;;14.50;2.40;;;;;;;;;;5065071;28;20028;-38
2023/12/17 06:19:54;;;;;;;20.58;2.40;;;;;;;;;;5070091;28;20463;-37
2023/12/17 06:22:23;;;;;;;20.52;2.10;;;;;;;;;;5070535;28;20150;-38
2023/12/17 06:24:49;;;;;;;19.80;2.15;;;;;;;;;;5070951;28;20052;-38
2023/12/17 06:27:17;;;;;;;19.02;2.47;;;;;;;;;;5071059;28;20596;-38
2023/12/17 06:29:46;;;;;;;17.58;2.42;;;;;;;;;;5068289;28;20063;-39
2023/12/17 06:32:13;;;;;;;16.17;2.55;;;;;;;;;;5068237;28;20042;-40
2023/12/17 06:34:41;;;;;;;10.38;1.80;;;;;;;;;;5069539;28;20056;-38
2023/12/17 06:37:10;;;;;;;16.95;2.83;;;;;;;;;;5071914;28;20047;-38
2023/12/17 06:39:42;;;;;;;10.93;2.20;;;;;;;;;;5069688;28;20432;-38
2023/12/17 06:42:11;;;;;;;15.52;2.38;;;;;;;;;;5070421;28;20410;-38
2023/12/17 06:44:38;;;;;;;20.70;2.28;;;;;;;;;;5039032;28;20048;-38
2023/12/17 06:47:05;;;;;;;9.50;1.67;;;;;;;;;;5071783;28;20040;-37
2023/12/17 06:49:32;;;;;;;13.20;2.13;;;;;;;;;;5071562;28;20115;-38
2023/12/17 06:51:59;;;;;;;13.82;2.42;;;;;;;;;;5069869;28;20017;-38
2023/12/17 06:54:26;;;;;;;13.70;2.53;;;;;;;;;;5070508;28;20138;-37
2023/12/17 06:56:53;;;;;;;21.17;2.28;;;;;;;;;;5071577;28;20027;-38
2023/12/17 06:59:20;;;;;;;18.15;2.60;;;;;;;;;;5070802;28;20028;-38
2023/12/17 07:01:47;;;;;;;13.85;1.92;;;;;;;;;;5071205;28;20181;-38
2023/12/17 07:04:14;;;;;;;9.52;2.13;;;;;;;;;;5071712;28;20037;-38
2023/12/17 07:06:41;;;;;;;14.07;2.00;;;;;;;;;;5071469;28;20055;-38
2023/12/17 07:09:08;;;;;;;12.38;1.90;;;;;;;;;;5070751;28;20016;-38
2023/12/17 07:11:35;;;;;;;11.35;2.15;;;;;;;;;;5070905;28;20459;-39
2023/12/17 07:14:02;;;;;;;8.43;1.70;;;;;;;;;;5066454;28;20031;-40
2023/12/17 07:16:30;;;;;;;11.68;2.50;;;;;;;;;;5069164;28;20078;-38
2023/12/17 07:18:56;;;;;;;10.38;2.35;;;;;;;;;;5071365;28;20063;-37
2023/12/17 07:21:23;;;;;;;7.40;1.77;;;;;;;;;;5071339;28;20510;-38
2023/12/17 07:23:50;;;;;;;9.05;1.95;;;;;;;;;;5071493;28;20474;-38
2023/12/17 07:26:17;;;;;;;6.97;1.83;;;;;;;;;;5070413;28;20040;-38
2023/12/17 07:28:44;;;;;;;13.23;1.92;;;;;;;;;;5071309;28;20039;-37
2023/12/17 07:31:12;;;;;;;11.60;2.05;;;;;;;;;;5071391;28;20097;-38
2023/12/17 07:33:39;;;;;;;6.55;1.67;;;;;;;;;;5071311;28;20025;-38
2023/12/17 07:36:06;;;;;;;9.07;1.88;;;;;;;;;;5068678;28;20466;-38
2023/12/17 07:38:33;;;;;;;10.27;1.90;;;;;;;;;;5070877;28;20037;-38
2023/12/17 07:41:00;;;;;;;6.82;1.60;;;;;;;;;;5070654;28;20033;-37
2023/12/17 07:43:28;;;;;;;6.93;1.73;;;;;;;;;;5070935;28;20033;-38
2023/12/17 07:45:56;;;;;;;10.93;2.10;;;;;;;;;;5071434;28;20076;-37
2023/12/17 07:48:23;;;;;;;5.20;1.50;;;;;;;;;;5074991;28;20078;-37
2023/12/17 07:50:50;;;;;;;12.77;1.85;;;;;;;;;;5074983;28;20025;-37
2023/12/17 07:53:17;;;;;;;8.88;1.75;;;;;;;;;;5075332;28;20119;-38
2023/12/17 07:55:44;;;;;;;5.88;1.70;;;;;;;;;;5074475;28;20039;-38
2023/12/17 07:58:10;;;;;;;5.22;1.48;;;;;;;;;;5075487;28;20069;-37
2023/12/17 08:00:37;;;;;;;8.02;1.80;;;;;;;;;;5075242;28;20397;-37
2023/12/17 08:03:04;;;;;;;6.43;1.52;;;;;;;;;;5075141;28;20059;-37
2023/12/17 08:05:31;;;;;;;6.97;1.80;;;;;;;;;;5072646;28;20043;-38
2023/12/17 08:07:58;;;;;;;4.90;1.90;;;;;;;;;;5074671;28;20390;-37
2023/12/17 08:10:25;;;;;;;5.80;1.88;;;;;;;;;;5074235;28;20083;-37
2023/12/17 08:12:52;;;;;;;5.32;1.30;;;;;;;;;;5075160;28;20069;-37
2023/12/17 08:15:19;;;;;;;5.57;1.73;;;;;;;;;;5075329;28;20083;-37
2023/12/17 08:17:46;;;;;;;8.13;1.60;;;;;;;;;;5075023;28;20048;-37
2023/12/17 08:20:13;;;;;;;5.47;1.77;;;;;;;;;;5073832;28;20029;-37
2023/12/17 08:22:41;;;;;;;5.68;1.65;;;;;;;;;;5075008;28;20075;-37
2023/12/17 08:25:08;;;;;;;7.07;1.60;;;;;;;;;;5074155;28;20043;-37
2023/12/17 08:27:35;;;;;;;3.58;1.63;;;;;;;;;;5074901;28;20025;-37
2023/12/17 08:30:02;;;;;;;4.95;1.50;;;;;;;;;;5074029;28;20024;-37
2023/12/17 08:32:32;;;;;;;7.65;1.20;;;;;;;;;;5074772;28;20024;-38
2023/12/17 08:34:59;;;;;;;9.18;1.50;;;;;;;;;;5074846;28;20490;-38
2023/12/17 08:37:26;;;;;;;7.15;1.65;;;;;;;;;;5074487;28;20107;-37
2023/12/17 08:39:54;;;;;;;6.85;1.70;;;;;;;;;;5071983;28;20025;-37
2023/12/17 08:42:21;;;;;;;5.93;1.33;;;;;;;;;;5074640;28;20024;-37
2023/12/17 08:44:48;;;;;;;4.20;1.73;;;;;;;;;;5074584;28;20074;-37
2023/12/17 08:47:15;;;;;;;8.98;1.65;;;;;;;;;;5069325;28;20067;-37
2023/12/17 08:49:43;;;;;;;3.45;1.55;;;;;;;;;;5072298;28;20446;-39
2023/12/17 08:52:09;;;;;;;3.17;1.30;;;;;;;;;;5074309;28;20027;-37
2023/12/17 08:54:36;;;;;;;3.65;1.17;;;;;;;;;;5072334;28;20032;-38
2023/12/17 08:57:03;;;;;;;3.53;1.35;;;;;;;;;;5066521;28;20024;-37
2023/12/17 08:59:30;;;;;;;4.38;1.55;;;;;;;;;;5074171;28;20025;-37
2023/12/17 09:01:57;;;;;;;2.67;1.30;;;;;;;;;;5074279;28;20029;-37
2023/12/17 09:04:24;;;;;;;7.40;1.58;;;;;;;;;;5073910;28;20051;-38
2023/12/17 09:06:52;;;;;;;4.40;1.33;;;;;;;;;;5073376;28;20376;-37
2023/12/17 09:09:19;;;;;;;3.38;1.30;;;;;;;;;;5058645;28;20028;-38
2023/12/17 09:11:46;;;;;;;3.47;1.25;;;;;;;;;;5069778;28;20030;-37
2023/12/17 09:14:13;;;;;;;3.63;1.50;;;;;;;;;;5071245;28;20541;-38
2023/12/17 09:16:40;;;;;;;4.97;1.70;;;;;;;;;;5073819;28;20044;-37
2023/12/17 09:19:07;;;;;;;6.95;1.30;;;;;;;;;;5072389;28;20438;-38
2023/12/17 09:21:33;;;;;;;6.22;1.42;;;;;;;;;;5072643;28;20063;-38
2023/12/17 09:24:00;;;;;;;3.25;1.58;;;;;;;;;;5070851;28;20024;-38
2023/12/17 09:26:27;;;;;;;3.10;1.23;;;;;;;;;;5073660;28;20064;-38
2023/12/17 09:28:54;;;;;;;4.47;1.48;;;;;;;;;;5073734;28;20032;-37
2023/12/17 09:31:21;;;;;;;3.05;1.23;;;;;;;;;;5073037;28;20024;-38
2023/12/17 09:33:48;;;;;;;3.20;1.20;;;;;;;;;;5073643;28;20021;-37
2023/12/17 09:36:16;;;;;;;2.92;1.40;;;;;;;;;;5073639;28;20123;-37
2023/12/17 09:38:43;;;;;;;1.95;1.20;;;;;;;;;;5073394;28;20044;-37
2023/12/17 09:41:10;;;;;;;3.40;1.25;;;;;;;;;;5072888;28;20047;-37
2023/12/17 09:43:37;;;;;;;2.20;1.23;;;;;;;;;;5073343;28;20029;-37
2023/12/17 09:46:04;;;;;;;3.08;1.20;;;;;;;;;;5073463;28;20036;-37
2023/12/17 09:48:31;;;;;;;2.67;1.48;;;;;;;;;;5073337;28;20437;-38
2023/12/17 09:50:58;;;;;;;2.65;1.25;;;;;;;;;;5068607;28;20070;-38
2023/12/17 09:53:25;;;;;;;2.70;1.20;;;;;;;;;;5073150;28;20048;-38
2023/12/17 09:55:52;;;;;;;2.97;1.20;;;;;;;;;;5072651;28;20025;-37
2023/12/17 09:58:19;;;;;;;4.10;1.60;;;;;;;;;;5073062;28;20024;-37
2023/12/17 10:00:46;;;;;;;6.13;1.55;;;;;;;;;;5069994;28;20029;-37
2023/12/17 10:03:14;;;;;;;4.20;1.20;;;;;;;;;;5071821;28;20098;-38
2023/12/17 10:05:41;;;;;;;4.93;1.50;;;;;;;;;;5072876;28;20121;-37
2023/12/17 10:08:08;;;;;;;2.58;1.40;;;;;;;;;;5072396;28;20037;-37
2023/12/17 10:10:35;;;;;;;4.65;1.50;;;;;;;;;;5072249;28;20036;-37
2023/12/17 10:13:03;;;;;;;9.38;1.45;;;;;;;;;;5072866;28;20031;-37
2023/12/17 10:15:35;;;;;;;3.95;1.52;;;;;;;;;;5072893;28;20112;-37
2023/12/17 10:18:02;;;;;;;3.15;1.40;;;;;;;;;;5072110;28;20058;-37
2023/12/17 10:20:30;;;;;;;4.00;1.48;;;;;;;;;;5071526;28;20028;-37
2023/12/17 10:22:58;;;;;;;4.75;1.50;;;;;;;;;;5067913;28;20067;-37
2023/12/17 10:25:25;;;;;;;2.30;1.48;;;;;;;;;;5068745;28;20051;-37
2023/12/17 10:27:59;;;;;;;3.33;1.27;;;;;;;;;;5072549;28;20029;-37
2023/12/17 10:30:30;;;;;;;4.82;1.42;;;;;;;;;;5071626;28;20028;-38
2023/12/17 10:32:58;;;;;;;3.95;1.50;;;;;;;;;;5072284;28;20028;-37
2023/12/17 10:35:25;;;;;;;4.70;1.40;;;;;;;;;;5072216;28;20120;-40
2023/12/17 10:37:59;;;;;;;4.35;1.50;;;;;;;;;;5071920;28;20041;-37
2023/12/17 10:40:26;;;;;;;2.72;1.30;;;;;;;;;;5070697;28;20037;-37
2023/12/17 10:42:55;;;;;;;5.60;1.40;;;;;;;;;;5068936;28;20061;-38
2023/12/17 10:45:22;;;;;;;4.38;1.38;;;;;;;;;;5072104;28;20174;-37
2023/12/17 10:47:52;;;;;;;2.95;1.50;;;;;;;;;;5071996;28;20021;-37
2023/12/17 10:50:20;;;;;;;5.63;1.35;;;;;;;;;;5072197;28;20059;-38
2023/12/17 10:52:48;;;;;;;4.03;1.67;;;;;;;;;;5071388;28;20106;-37
2023/12/17 10:55:15;;;;;;;2.80;1.30;;;;;;;;;;5069789;28;20044;-37
2023/12/17 10:57:46;;;;;;;1.75;1.40;;;;;;;;;;5071947;28;20024;-37
2023/12/17 11:00:13;;;;;;;3.50;1.38;;;;;;;;;;5071827;28;20149;-37
2023/12/17 11:02:40;;;;;;;3.60;1.58;;;;;;;;;;5071827;28;20047;-37
2023/12/17 11:05:07;;;;;;;5.07;1.50;;;;;;;;;;5070346;28;20063;-37
2023/12/17 11:07:35;;;;;;;2.65;1.30;;;;;;;;;;5068057;28;20047;-37
2023/12/17 11:10:02;;;;;;;3.05;1.30;;;;;;;;;;5069493;28;20029;-37
2023/12/17 11:12:29;;;;;;;2.25;1.10;;;;;;;;;;5069986;28;20454;-38
2023/12/17 11:14:59;;;;;;;2.55;1.30;;;;;;;;;;5071880;28;20383;-37
2023/12/17 11:17:27;;;;;;;2.85;1.25;;;;;;;;;;5053743;28;20104;-38
2023/12/17 11:19:58;;;;;;;4.93;1.70;;;;;;;;;;5070732;28;20504;-38
2023/12/17 11:22:25;;;;;;;5.57;1.35;;;;;;;;;;5069919;28;20471;-37
2023/12/17 11:24:58;;;;;;;4.05;1.50;;;;;;;;;;5069244;28;20040;-38
2023/12/17 11:27:26;;;;;;;2.63;1.10;;;;;;;;;;5070095;28;20036;-37
2023/12/17 11:29:53;;;;;;;2.47;1.30;;;;;;;;;;5066553;28;20465;-38
2023/12/17 11:32:21;;;;;;;3.45;1.13;;;;;;;;;;5071505;28;20037;-38
2023/12/17 11:34:52;;;;;;;3.15;1.30;;;;;;;;;;5070667;28;20028;-38
2023/12/17 11:37:20;;;;;;;2.40;1.40;;;;;;;;;;5067360;28;20112;-38
2023/12/17 11:39:48;;;;;;;3.15;1.10;;;;;;;;;;5068791;28;20028;-37
2023/12/17 11:42:15;;;;;;;3.50;1.35;;;;;;;;;;5071361;28;20494;-37
2023/12/17 11:44:52;;;;;;;2.85;1.38;;;;;;;;;;5070644;28;20050;-37
2023/12/17 11:47:28;;;;;;;5.20;1.30;;;;;;;;;;5071312;28;20027;-38
2023/12/17 11:50:01;;;;;;;3.45;1.20;;;;;;;;;;5071287;28;20028;-38
2023/12/17 11:52:28;;;;;;;3.47;1.10;;;;;;;;;;5071377;28;20052;-37
2023/12/17 11:54:59;;;;;;;3.00;1.13;;;;;;;;;;5070776;28;20583;-37
2023/12/17 11:57:27;;;;;;;3.97;1.17;;;;;;;;;;5071158;28;20074;-37
2023/12/17 11:59:54;;;;;;;3.17;0.88;;;;;;;;;;5071351;28;20078;-38
2023/12/17 12:02:22;;;;;;;3.92;1.02;;;;;;;;;;5071087;28;20029;-38
2023/12/17 12:04:51;;;;;;;5.35;1.42;;;;;;;;;;5070532;28;20047;-38
2023/12/17 12:07:20;;;;;;;2.25;0.95;;;;;;;;;;5071078;28;20064;-38
2023/12/17 12:09:48;;;;;;;1.60;0.90;;;;;;;;;;5070285;28;20386;-38
2023/12/17 12:12:24;;;;;;;2.17;0.50;;;;;;;;;;5070690;28;20036;-38
2023/12/17 12:14:51;;;;;;;2.83;0.88;;;;;;;;;;5071243;28;20376;-38
2023/12/17 12:17:40;;;;;;;1.55;0.60;;;;;;;;;;5071055;28;20430;-38
2023/12/17 12:20:14;;;;;;;2.03;0.70;;;;;;;;;;5066571;28;20032;-37
2023/12/17 12:22:42;;;;;;;2.40;0.50;;;;;;;;;;5051004;28;20048;-36
2023/12/17 12:25:10;;;;;;;1.55;0.60;;;;;;;;;;5053742;28;20565;-36
2023/12/17 12:27:38;;;;;;;2.05;0.60;;;;;;;;;;5062593;28;20043;-38
2023/12/17 12:30:05;;;;;;;2.55;0.43;;;;;;;;;;5070139;28;20036;-36
2023/12/17 12:32:33;;;;;;;1.25;0.63;;;;;;;;;;5070394;28;20032;-36
2023/12/17 12:35:01;;;;;;;2.63;0.90;;;;;;;;;;5074497;28;20037;-37
2023/12/17 12:37:38;;;;;;;2.25;0.45;;;;;;;;;;5074465;28;20043;-36
2023/12/17 12:40:06;;;;;;;3.70;0.50;;;;;;;;;;5073954;28;20029;-36
2023/12/17 12:42:33;;;;;;;1.85;0.40;;;;;;;;;;5073736;28;20390;-36
2023/12/17 12:45:01;;;;;;;2.05;0.55;;;;;;;;;;5074519;28;20028;-37
2023/12/17 12:47:28;;;;;;;1.42;0.40;;;;;;;;;;5074444;28;20025;-37
2023/12/17 12:49:55;;;;;;;0.70;0.40;;;;;;;;;;5073276;28;20055;-36
2023/12/17 12:52:23;;;;;;;3.15;0.45;;;;;;;;;;5069049;28;20363;-36
2023/12/17 12:54:54;;;;;;;2.17;0.47;;;;;;;;;;5070649;28;20062;-37
2023/12/17 12:57:22;;;;;;;0.95;0.40;;;;;;;;;;5069922;28;20036;-36
2023/12/17 12:59:49;;;;;;;1.85;0.60;;;;;;;;;;5068762;28;20064;-38
2023/12/17 13:02:16;;;;;;;3.65;0.60;;;;;;;;;;5065719;28;20055;-37
2023/12/17 13:04:43;;;;;;;3.90;0.50;;;;;;;;;;5067970;28;20398;-37
2023/12/17 13:07:10;;;;;;;3.75;0.60;;;;;;;;;;5067617;28;20450;-36
2023/12/17 13:09:37;;;;;;;1.35;0.40;;;;;;;;;;5068438;28;20123;-36
2023/12/17 13:12:04;;;;;;;2.75;0.43;;;;;;;;;;5072253;28;20033;-37
2023/12/17 13:14:32;;;;;;;29.33;0.88;;;;;;;;;;5073152;28;20482;-37
2023/12/17 13:16:59;;;;;;;3.50;0.55;;;;;;;;;;5073897;28;20046;-37
2023/12/17 13:19:26;;;;;;;4.80;0.50;;;;;;;;;;5071762;28;20029;-36
2023/12/17 13:21:53;;;;;;;1.10;0.30;;;;;;;;;;5067584;28;20024;-37
2023/12/17 13:24:21;;;;;;;3.78;0.45;;;;;;;;;;5068472;28;20029;-36
2023/12/17 13:26:48;;;;;;;11.65;0.68;;;;;;;;;;5067468;28;20115;-37
2023/12/17 13:29:15;;;;;;;3.90;0.43;;;;;;;;;;5065189;28;20028;-37
2023/12/17 13:31:43;;;;;;;2.17;0.40;;;;;;;;;;5063461;28;20036;-37
2023/12/17 13:34:10;;;;;;;2.47;0.40;;;;;;;;;;5062545;28;20043;-36
2023/12/17 13:36:37;;;;;;;0.40;0.30;;;;;;;;;;5066275;28;20482;-36
2023/12/17 13:39:04;;;;;;;2.15;0.45;;;;;;;;;;5063919;28;20483;-36
2023/12/17 13:41:31;;;;;;;1.02;0.40;;;;;;;;;;5066732;28;20039;-36
2023/12/17 13:43:58;;;;;;;1.23;0.40;;;;;;;;;;5069038;28;20024;-37
2023/12/17 13:46:25;;;;;;;8.82;1.30;;;;;;;;;;5066626;28;20040;-37
2023/12/17 13:48:52;;;;;;;5.85;0.63;;;;;;;;;;5066230;28;20033;-37
2023/12/17 13:51:19;;;;;;;6.28;0.80;;;;;;;;;;5066708;28;20478;-37
2023/12/17 13:53:48;;;;;;;7.70;0.63;;;;;;;;;;5068651;28;20056;-38
2023/12/17 13:56:15;;;;;;;5.13;0.70;;;;;;;;;;5069894;28;20080;-36
2023/12/17 13:58:42;;;;;;;1.80;0.47;;;;;;;;;;5066035;28;20037;-37
2023/12/17 14:01:11;;;;;;;1.27;0.38;;;;;;;;;;5065619;28;20478;-37
2023/12/17 14:03:38;;;;;;;15.27;0.70;;;;;;;;;;5066765;28;20052;-36
2023/12/17 14:06:08;;;;;;;9.75;0.75;;;;;;;;;;5066112;28;20063;-36
2023/12/17 14:08:35;;;;;;;2.90;0.50;;;;;;;;;;5051813;28;20025;-37
2023/12/17 14:11:02;;;;;;;2.13;0.63;;;;;;;;;;5062075;28;20514;-36
2023/12/17 14:13:29;;;;;;;3.20;0.77;;;;;;;;;;5067690;28;20021;-36
2023/12/17 14:15:57;;;;;;;4.10;0.50;;;;;;;;;;5063451;28;20032;-36
2023/12/17 14:18:24;;;;;;;1.83;0.57;;;;;;;;;;5065332;28;20036;-37
2023/12/17 14:20:52;;;;;;;1.05;0.40;;;;;;;;;;5072021;28;20111;-37
2023/12/17 14:23:18;;;;;;;137.85;7.30;;;;;;;;;;5071236;28;20428;-37
2023/12/17 14:25:45;;;;;;;6.43;0.60;;;;;;;;;;5068398;28;20052;-34
2023/12/17 14:28:12;;;;;;;4.38;0.50;;;;;;;;;;5071683;28;20070;-34
2023/12/17 14:30:39;;;;;;;3.75;0.40;;;;;;;;;;5072152;28;20040;-34
2023/12/17 14:33:07;;;;;;;11.02;0.90;;;;;;;;;;5072043;28;20107;-34
2023/12/17 14:35:34;;;;;;;9.10;0.80;;;;;;;;;;5071681;28;20103;-34
2023/12/17 14:38:01;;;;;;;2.40;0.50;;;;;;;;;;5071744;28;20128;-34
2023/12/17 14:40:28;;;;;;;4.22;0.40;;;;;;;;;;5071291;28;20024;-34
2023/12/17 14:42:55;;;;;;;0.82;0.45;;;;;;;;;;5071491;28;20046;-34